sensor_id;sensor_type;location;lat;lon;timestamp;temperature;humidity
21244;DHT22;10780;50.942;4.028;2023-05-02T00:00:36;12.00;99.90
21244;DHT22;10780;50.942;4.028;2023-05-02T00:03:03;12.10;99.90
21244;DHT22;10780;50.942;4.028;2023-05-02T00:05:30;12.00;99.90
21244;DHT22;10780;50.942;4.028;2023-05-02T00:07:55;12.10;99.90
21244;DHT22;10780;50.942;4.028;2023-05-02T00:10:21;12.20;99.90
21244;DHT22;10780;50.942;4.028;2023-05-02T00:12:47;12.20;99.90
21244;DHT22;10780;50.942;4.028;2023-05-02T00:15:12;12.30;99.90
21244;DHT22;10780;50.942;4.028;2023-05-02T00:17:41;12.30;99.90
21244;DHT22;10780;50.942;4.028;2023-05-02T00:20:09;12.30;99.90
21244;DHT22;10780;50.942;4.028;2023-05-02T00:22:35;12.30;99.90
21244;DHT22;10780;50.942;4.028;2023-05-02T00:25:01;12.30;99.90
21244;DHT22;10780;50.942;4.028;2023-05-02T00:27:26;12.20;99.90
21244;DHT22;10780;50.942;4.028;2023-05-02T00:29:53;12.30;99.90
21244;DHT22;10780;50.942;4.028;2023-05-02T00:32:19;12.30;99.90
21244;DHT22;10780;50.942;4.028;2023-05-02T00:34:45;12.30;99.90
21244;DHT22;10780;50.942;4.028;2023-05-02T00:37:11;12.30;99.90
21244;DHT22;10780;50.942;4.028;2023-05-02T00:39:37;12.30;99.90
21244;DHT22;10780;50.942;4.028;2023-05-02T00:42:03;12.30;99.90
21244;DHT22;10780;50.942;4.028;2023-05-02T00:44:29;12.40;99.90
21244;DHT22;10780;50.942;4.028;2023-05-02T00:46:55;12.50;99.90
21244;DHT22;10780;50.942;4.028;2023-05-02T00:49:21;12.40;99.90
21244;DHT22;10780;50.942;4.028;2023-05-02T00:51:47;12.40;99.90
21244;DHT22;10780;50.942;4.028;2023-05-02T00:54:13;12.50;99.90
21244;DHT22;10780;50.942;4.028;2023-05-02T00:56:39;12.30;99.90
21244;DHT22;10780;50.942;4.028;2023-05-02T00:59:06;12.30;99.90
21244;DHT22;10780;50.942;4.028;2023-05-02T01:01:44;12.20;99.90
21244;DHT22;10780;50.942;4.028;2023-05-02T01:07:34;12.00;99.90
21244;DHT22;10780;50.942;4.028;2023-05-02T01:13:03;12.00;99.90
21244;DHT22;10780;50.942;4.028;2023-05-02T01:15:32;12.00;99.90
21244;DHT22;10780;50.942;4.028;2023-05-02T01:18:00;12.00;99.90
21244;DHT22;10780;50.942;4.028;2023-05-02T01:20:27;12.10;99.90
21244;DHT22;10780;50.942;4.028;2023-05-02T01:22:59;12.20;99.90
21244;DHT22;10780;50.942;4.028;2023-05-02T01:25:32;12.30;99.90
21244;DHT22;10780;50.942;4.028;2023-05-02T01:28:35;12.20;99.90
21244;DHT22;10780;50.942;4.028;2023-05-02T01:31:04;12.10;99.90
21244;DHT22;10780;50.942;4.028;2023-05-02T01:33:31;12.10;99.90
21244;DHT22;10780;50.942;4.028;2023-05-02T01:35:58;12.10;99.90
21244;DHT22;10780;50.942;4.028;2023-05-02T01:38:26;12.10;99.90
21244;DHT22;10780;50.942;4.028;2023-05-02T01:40:53;12.10;99.90
21244;DHT22;10780;50.942;4.028;2023-05-02T01:43:22;12.20;99.90
21244;DHT22;10780;50.942;4.028;2023-05-02T01:45:49;12.30;99.90
21244;DHT22;10780;50.942;4.028;2023-05-02T01:48:16;12.30;99.90
21244;DHT22;10780;50.942;4.028;2023-05-02T01:50:44;12.10;99.90
21244;DHT22;10780;50.942;4.028;2023-05-02T01:53:11;12.00;99.90
21244;DHT22;10780;50.942;4.028;2023-05-02T01:55:41;11.80;99.90
21244;DHT22;10780;50.942;4.028;2023-05-02T01:58:08;11.90;99.90
21244;DHT22;10780;50.942;4.028;2023-05-02T02:00:35;11.90;99.90
21244;DHT22;10780;50.942;4.028;2023-05-02T02:03:04;11.90;99.90
21244;DHT22;10780;50.942;4.028;2023-05-02T02:05:33;11.80;99.90
21244;DHT22;10780;50.942;4.028;2023-05-02T02:07:59;11.90;99.90
21244;DHT22;10780;50.942;4.028;2023-05-02T02:10:25;11.90;99.90
21244;DHT22;10780;50.942;4.028;2023-05-02T02:13:05;11.90;99.90
21244;DHT22;10780;50.942;4.028;2023-05-02T02:15:34;11.70;99.90
21244;DHT22;10780;50.942;4.028;2023-05-02T02:18:09;11.80;99.90
21244;DHT22;10780;50.942;4.028;2023-05-02T02:20:36;11.70;99.90
21244;DHT22;10780;50.942;4.028;2023-05-02T02:23:06;11.70;99.90
21244;DHT22;10780;50.942;4.028;2023-05-02T02:25:33;11.60;99.90
21244;DHT22;10780;50.942;4.028;2023-05-02T02:28:00;11.60;99.90
21244;DHT22;10780;50.942;4.028;2023-05-02T02:30:25;11.60;99.90
21244;DHT22;10780;50.942;4.028;2023-05-02T02:32:51;11.60;99.90
21244;DHT22;10780;50.942;4.028;2023-05-02T02:35:17;11.50;99.90
21244;DHT22;10780;50.942;4.028;2023-05-02T02:37:49;11.60;99.90
21244;DHT22;10780;50.942;4.028;2023-05-02T02:40:33;11.60;99.90
21244;DHT22;10780;50.942;4.028;2023-05-02T02:43:04;11.40;99.90
21244;DHT22;10780;50.942;4.028;2023-05-02T02:45:49;11.20;99.90
21244;DHT22;10780;50.942;4.028;2023-05-02T02:51:38;11.20;99.90
21244;DHT22;10780;50.942;4.028;2023-05-02T02:56:44;10.90;99.90
21244;DHT22;10780;50.942;4.028;2023-05-02T02:59:28;10.90;99.90
21244;DHT22;10780;50.942;4.028;2023-05-02T03:02:08;10.80;99.90
21244;DHT22;10780;50.942;4.028;2023-05-02T03:04:40;10.70;99.90
21244;DHT22;10780;50.942;4.028;2023-05-02T03:07:08;10.60;99.90
21244;DHT22;10780;50.942;4.028;2023-05-02T03:09:41;10.60;99.90
21244;DHT22;10780;50.942;4.028;2023-05-02T03:12:07;10.50;99.90
21244;DHT22;10780;50.942;4.028;2023-05-02T03:14:32;10.50;99.90
21244;DHT22;10780;50.942;4.028;2023-05-02T03:16:58;10.60;99.90
21244;DHT22;10780;50.942;4.028;2023-05-02T03:19:24;10.60;99.90
21244;DHT22;10780;50.942;4.028;2023-05-02T03:21:49;10.50;99.90
21244;DHT22;10780;50.942;4.028;2023-05-02T03:24:15;10.60;99.90
21244;DHT22;10780;50.942;4.028;2023-05-02T03:26:41;10.60;99.90
21244;DHT22;10780;50.942;4.028;2023-05-02T03:29:06;10.60;99.90
21244;DHT22;10780;50.942;4.028;2023-05-02T03:31:32;10.60;99.90
21244;DHT22;10780;50.942;4.028;2023-05-02T03:33:58;10.60;99.90
21244;DHT22;10780;50.942;4.028;2023-05-02T03:36:23;10.60;99.90
21244;DHT22;10780;50.942;4.028;2023-05-02T03:38:49;10.60;99.90
21244;DHT22;10780;50.942;4.028;2023-05-02T03:41:15;10.60;99.90
21244;DHT22;10780;50.942;4.028;2023-05-02T03:43:40;10.70;99.90
21244;DHT22;10780;50.942;4.028;2023-05-02T03:46:08;10.70;99.90
21244;DHT22;10780;50.942;4.028;2023-05-02T03:48:35;10.70;99.90
21244;DHT22;10780;50.942;4.028;2023-05-02T03:51:02;10.70;99.90
21244;DHT22;10780;50.942;4.028;2023-05-02T03:53:29;10.70;99.90
21244;DHT22;10780;50.942;4.028;2023-05-02T03:55:56;10.60;99.90
21244;DHT22;10780;50.942;4.028;2023-05-02T03:58:22;10.70;99.90
21244;DHT22;10780;50.942;4.028;2023-05-02T04:00:47;10.80;99.90
21244;DHT22;10780;50.942;4.028;2023-05-02T04:03:13;10.90;99.90
21244;DHT22;10780;50.942;4.028;2023-05-02T04:05:39;10.90;99.90
21244;DHT22;10780;50.942;4.028;2023-05-02T04:08:05;10.80;99.90
21244;DHT22;10780;50.942;4.028;2023-05-02T04:10:30;10.70;99.90
21244;DHT22;10780;50.942;4.028;2023-05-02T04:12:56;10.70;99.90
21244;DHT22;10780;50.942;4.028;2023-05-02T04:15:21;10.60;99.90
21244;DHT22;10780;50.942;4.028;2023-05-02T04:17:47;10.70;99.90
21244;DHT22;10780;50.942;4.028;2023-05-02T04:20:13;10.70;99.90
21244;DHT22;10780;50.942;4.028;2023-05-02T04:22:39;10.60;99.90
21244;DHT22;10780;50.942;4.028;2023-05-02T04:25:05;10.70;99.90
21244;DHT22;10780;50.942;4.028;2023-05-02T04:27:32;10.60;99.90
21244;DHT22;10780;50.942;4.028;2023-05-02T04:29:57;10.50;99.90
21244;DHT22;10780;50.942;4.028;2023-05-02T04:32:23;10.50;99.90
21244;DHT22;10780;50.942;4.028;2023-05-02T04:34:49;10.50;99.90
21244;DHT22;10780;50.942;4.028;2023-05-02T04:37:15;10.60;99.90
21244;DHT22;10780;50.942;4.028;2023-05-02T04:39:41;10.70;99.90
21244;DHT22;10780;50.942;4.028;2023-05-02T04:42:06;10.70;99.90
21244;DHT22;10780;50.942;4.028;2023-05-02T04:44:32;10.80;99.90
21244;DHT22;10780;50.942;4.028;2023-05-02T04:46:58;10.90;99.90
21244;DHT22;10780;50.942;4.028;2023-05-02T04:49:24;11.00;99.90
21244;DHT22;10780;50.942;4.028;2023-05-02T04:51:49;11.00;99.90
21244;DHT22;10780;50.942;4.028;2023-05-02T04:54:17;11.00;99.90
21244;DHT22;10780;50.942;4.028;2023-05-02T04:56:42;10.90;99.90
21244;DHT22;10780;50.942;4.028;2023-05-02T04:59:08;11.10;99.90
21244;DHT22;10780;50.942;4.028;2023-05-02T05:01:33;11.10;99.90
21244;DHT22;10780;50.942;4.028;2023-05-02T05:03:59;11.10;99.90
21244;DHT22;10780;50.942;4.028;2023-05-02T05:06:25;11.10;99.90
21244;DHT22;10780;50.942;4.028;2023-05-02T05:08:51;11.30;99.90
21244;DHT22;10780;50.942;4.028;2023-05-02T05:11:16;11.30;99.90
21244;DHT22;10780;50.942;4.028;2023-05-02T05:13:42;11.30;99.90
21244;DHT22;10780;50.942;4.028;2023-05-02T05:16:08;11.30;99.90
21244;DHT22;10780;50.942;4.028;2023-05-02T05:18:33;11.40;99.90
21244;DHT22;10780;50.942;4.028;2023-05-02T05:21:05;11.30;99.90
21244;DHT22;10780;50.942;4.028;2023-05-02T05:23:32;11.40;99.90
21244;DHT22;10780;50.942;4.028;2023-05-02T05:26:07;11.40;99.90
21244;DHT22;10780;50.942;4.028;2023-05-02T05:28:32;11.40;99.90
21244;DHT22;10780;50.942;4.028;2023-05-02T05:31:04;11.40;99.90
21244;DHT22;10780;50.942;4.028;2023-05-02T05:33:30;11.50;99.90
21244;DHT22;10780;50.942;4.028;2023-05-02T05:35:56;11.60;99.90
21244;DHT22;10780;50.942;4.028;2023-05-02T05:38:21;11.60;99.90
21244;DHT22;10780;50.942;4.028;2023-05-02T05:40:48;11.50;99.90
21244;DHT22;10780;50.942;4.028;2023-05-02T05:43:15;11.60;99.90
21244;DHT22;10780;50.942;4.028;2023-05-02T05:45:41;11.50;99.90
21244;DHT22;10780;50.942;4.028;2023-05-02T05:48:06;11.60;99.90
21244;DHT22;10780;50.942;4.028;2023-05-02T05:50:33;11.60;99.90
21244;DHT22;10780;50.942;4.028;2023-05-02T05:52:59;11.70;99.90
21244;DHT22;10780;50.942;4.028;2023-05-02T05:55:26;11.70;99.90
21244;DHT22;10780;50.942;4.028;2023-05-02T05:57:52;11.50;99.90
21244;DHT22;10780;50.942;4.028;2023-05-02T06:00:19;11.50;99.90
21244;DHT22;10780;50.942;4.028;2023-05-02T06:02:45;11.60;99.90
21244;DHT22;10780;50.942;4.028;2023-05-02T06:05:11;11.70;99.90
21244;DHT22;10780;50.942;4.028;2023-05-02T06:07:37;11.70;99.90
21244;DHT22;10780;50.942;4.028;2023-05-02T06:10:03;11.70;99.90
21244;DHT22;10780;50.942;4.028;2023-05-02T06:12:29;11.70;99.90
21244;DHT22;10780;50.942;4.028;2023-05-02T06:14:56;11.40;99.90
21244;DHT22;10780;50.942;4.028;2023-05-02T06:17:22;11.30;99.90
21244;DHT22;10780;50.942;4.028;2023-05-02T06:19:48;11.20;99.90
21244;DHT22;10780;50.942;4.028;2023-05-02T06:22:13;11.30;99.90
21244;DHT22;10780;50.942;4.028;2023-05-02T06:24:39;11.30;99.90
21244;DHT22;10780;50.942;4.028;2023-05-02T06:27:05;11.40;99.90
21244;DHT22;10780;50.942;4.028;2023-05-02T06:29:36;11.50;99.90
21244;DHT22;10780;50.942;4.028;2023-05-02T06:32:03;11.60;99.90
21244;DHT22;10780;50.942;4.028;2023-05-02T06:34:32;11.70;99.90
21244;DHT22;10780;50.942;4.028;2023-05-02T06:36:59;11.90;99.90
21244;DHT22;10780;50.942;4.028;2023-05-02T06:39:25;12.00;99.90
21244;DHT22;10780;50.942;4.028;2023-05-02T06:41:55;12.20;99.90
21244;DHT22;10780;50.942;4.028;2023-05-02T06:44:21;12.10;99.90
21244;DHT22;10780;50.942;4.028;2023-05-02T06:46:46;12.10;99.90
21244;DHT22;10780;50.942;4.028;2023-05-02T06:49:12;12.40;99.90
21244;DHT22;10780;50.942;4.028;2023-05-02T06:51:38;12.90;99.90
21244;DHT22;10780;50.942;4.028;2023-05-02T06:54:04;13.00;99.90
21244;DHT22;10780;50.942;4.028;2023-05-02T06:56:30;13.20;99.90
21244;DHT22;10780;50.942;4.028;2023-05-02T06:58:56;13.30;99.90
21244;DHT22;10780;50.942;4.028;2023-05-02T07:01:22;13.40;99.90
21244;DHT22;10780;50.942;4.028;2023-05-02T07:03:47;13.20;99.90
21244;DHT22;10780;50.942;4.028;2023-05-02T07:06:13;13.00;99.90
21244;DHT22;10780;50.942;4.028;2023-05-02T07:08:38;13.00;99.90
21244;DHT22;10780;50.942;4.028;2023-05-02T07:11:04;12.80;99.90
21244;DHT22;10780;50.942;4.028;2023-05-02T07:13:30;12.90;99.90
21244;DHT22;10780;50.942;4.028;2023-05-02T07:15:55;13.20;99.90
21244;DHT22;10780;50.942;4.028;2023-05-02T07:18:21;13.40;99.90
21244;DHT22;10780;50.942;4.028;2023-05-02T07:20:47;13.10;99.90
21244;DHT22;10780;50.942;4.028;2023-05-02T07:23:13;13.40;99.90
21244;DHT22;10780;50.942;4.028;2023-05-02T07:25:38;13.50;99.90
21244;DHT22;10780;50.942;4.028;2023-05-02T07:28:05;13.30;99.90
21244;DHT22;10780;50.942;4.028;2023-05-02T07:30:31;13.30;99.90
21244;DHT22;10780;50.942;4.028;2023-05-02T07:32:56;13.40;99.90
21244;DHT22;10780;50.942;4.028;2023-05-02T07:35:22;13.40;99.90
21244;DHT22;10780;50.942;4.028;2023-05-02T07:37:47;13.40;99.90
21244;DHT22;10780;50.942;4.028;2023-05-02T07:40:13;13.30;99.90
21244;DHT22;10780;50.942;4.028;2023-05-02T07:42:39;13.30;99.90
21244;DHT22;10780;50.942;4.028;2023-05-02T07:45:09;13.00;99.90
21244;DHT22;10780;50.942;4.028;2023-05-02T07:47:35;13.10;99.90
21244;DHT22;10780;50.942;4.028;2023-05-02T07:50:01;13.10;99.90
21244;DHT22;10780;50.942;4.028;2023-05-02T07:52:30;13.30;99.90
21244;DHT22;10780;50.942;4.028;2023-05-02T07:54:56;13.30;99.90
21244;DHT22;10780;50.942;4.028;2023-05-02T07:57:22;13.60;99.90
21244;DHT22;10780;50.942;4.028;2023-05-02T07:59:48;13.50;99.90
21244;DHT22;10780;50.942;4.028;2023-05-02T08:02:14;13.70;99.90
21244;DHT22;10780;50.942;4.028;2023-05-02T08:04:41;13.70;99.90
21244;DHT22;10780;50.942;4.028;2023-05-02T08:07:07;13.70;99.90
21244;DHT22;10780;50.942;4.028;2023-05-02T08:09:33;13.70;99.90
21244;DHT22;10780;50.942;4.028;2023-05-02T08:11:59;13.90;99.90
21244;DHT22;10780;50.942;4.028;2023-05-02T08:14:27;14.30;99.90
21244;DHT22;10780;50.942;4.028;2023-05-02T08:16:53;14.30;99.90
21244;DHT22;10780;50.942;4.028;2023-05-02T08:19:23;14.70;99.90
21244;DHT22;10780;50.942;4.028;2023-05-02T08:21:53;14.80;99.90
21244;DHT22;10780;50.942;4.028;2023-05-02T08:24:19;14.80;99.90
21244;DHT22;10780;50.942;4.028;2023-05-02T08:26:46;14.60;99.90
21244;DHT22;10780;50.942;4.028;2023-05-02T08:29:13;14.60;99.90
21244;DHT22;10780;50.942;4.028;2023-05-02T08:31:40;14.50;99.90
21244;DHT22;10780;50.942;4.028;2023-05-02T08:34:06;14.60;99.90
21244;DHT22;10780;50.942;4.028;2023-05-02T08:36:31;14.60;99.90
21244;DHT22;10780;50.942;4.028;2023-05-02T08:38:57;14.40;99.90
21244;DHT22;10780;50.942;4.028;2023-05-02T08:41:23;14.40;99.90
21244;DHT22;10780;50.942;4.028;2023-05-02T08:43:49;14.60;99.90
21244;DHT22;10780;50.942;4.028;2023-05-02T08:46:15;14.70;99.90
21244;DHT22;10780;50.942;4.028;2023-05-02T08:48:43;14.70;99.90
21244;DHT22;10780;50.942;4.028;2023-05-02T08:51:15;14.50;99.90
21244;DHT22;10780;50.942;4.028;2023-05-02T08:53:41;14.60;99.90
21244;DHT22;10780;50.942;4.028;2023-05-02T08:56:08;14.70;99.90
21244;DHT22;10780;50.942;4.028;2023-05-02T08:58:38;14.70;99.90
21244;DHT22;10780;50.942;4.028;2023-05-02T09:01:23;14.50;99.90
21244;DHT22;10780;50.942;4.028;2023-05-02T09:03:53;14.60;99.90
21244;DHT22;10780;50.942;4.028;2023-05-02T09:06:21;14.70;99.90
21244;DHT22;10780;50.942;4.028;2023-05-02T09:08:48;14.70;99.90
21244;DHT22;10780;50.942;4.028;2023-05-02T09:11:16;14.60;99.90
21244;DHT22;10780;50.942;4.028;2023-05-02T09:16:08;14.20;99.90
21244;DHT22;10780;50.942;4.028;2023-05-02T09:18:45;14.20;99.90
21244;DHT22;10780;50.942;4.028;2023-05-02T09:21:16;14.20;99.90
21244;DHT22;10780;50.942;4.028;2023-05-02T09:23:43;14.10;99.90
21244;DHT22;10780;50.942;4.028;2023-05-02T09:26:20;14.30;99.90
21244;DHT22;10780;50.942;4.028;2023-05-02T09:28:47;14.20;99.90
21244;DHT22;10780;50.942;4.028;2023-05-02T09:31:18;14.00;99.90
21244;DHT22;10780;50.942;4.028;2023-05-02T09:33:46;14.20;99.90
21244;DHT22;10780;50.942;4.028;2023-05-02T09:36:14;14.40;99.90
21244;DHT22;10780;50.942;4.028;2023-05-02T09:38:41;14.70;99.90
21244;DHT22;10780;50.942;4.028;2023-05-02T09:41:08;14.90;99.90
21244;DHT22;10780;50.942;4.028;2023-05-02T09:43:34;15.10;99.90
21244;DHT22;10780;50.942;4.028;2023-05-02T09:46:02;15.50;99.90
21244;DHT22;10780;50.942;4.028;2023-05-02T09:48:31;15.70;99.90
21244;DHT22;10780;50.942;4.028;2023-05-02T09:50:57;15.90;99.90
21244;DHT22;10780;50.942;4.028;2023-05-02T09:53:27;16.00;99.90
21244;DHT22;10780;50.942;4.028;2023-05-02T09:56:00;16.00;99.90
21244;DHT22;10780;50.942;4.028;2023-05-02T09:58:26;15.70;99.90
21244;DHT22;10780;50.942;4.028;2023-05-02T10:00:52;15.30;99.90
21244;DHT22;10780;50.942;4.028;2023-05-02T10:03:18;15.50;99.90
21244;DHT22;10780;50.942;4.028;2023-05-02T10:05:45;15.70;99.90
21244;DHT22;10780;50.942;4.028;2023-05-02T10:08:11;16.00;99.90
21244;DHT22;10780;50.942;4.028;2023-05-02T10:10:39;16.20;99.90
21244;DHT22;10780;50.942;4.028;2023-05-02T10:13:07;16.40;99.90
21244;DHT22;10780;50.942;4.028;2023-05-02T10:15:36;15.60;99.90
21244;DHT22;10780;50.942;4.028;2023-05-02T10:18:12;15.30;99.90
21244;DHT22;10780;50.942;4.028;2023-05-02T10:20:55;15.10;99.90
21244;DHT22;10780;50.942;4.028;2023-05-02T10:23:24;15.10;99.90
21244;DHT22;10780;50.942;4.028;2023-05-02T10:25:50;14.80;99.90
21244;DHT22;10780;50.942;4.028;2023-05-02T10:28:16;14.70;99.90
21244;DHT22;10780;50.942;4.028;2023-05-02T10:30:43;14.70;99.90
21244;DHT22;10780;50.942;4.028;2023-05-02T10:46:36;15.60;99.90
21244;DHT22;10780;50.942;4.028;2023-05-02T10:49:09;15.50;99.90
21244;DHT22;10780;50.942;4.028;2023-05-02T10:51:40;15.60;99.90
21244;DHT22;10780;50.942;4.028;2023-05-02T10:54:23;15.50;99.90
21244;DHT22;10780;50.942;4.028;2023-05-02T10:59:40;15.90;99.90
21244;DHT22;10780;50.942;4.028;2023-05-02T11:07:27;15.40;99.90
21244;DHT22;10780;50.942;4.028;2023-05-02T11:12:45;15.40;99.90
21244;DHT22;10780;50.942;4.028;2023-05-02T11:20:34;16.00;99.90
21244;DHT22;10780;50.942;4.028;2023-05-02T11:25:53;16.50;99.90
21244;DHT22;10780;50.942;4.028;2023-05-02T11:28:39;16.20;99.90
21244;DHT22;10780;50.942;4.028;2023-05-02T11:36:33;15.70;99.90
21244;DHT22;10780;50.942;4.028;2023-05-02T11:38:59;15.60;99.90
21244;DHT22;10780;50.942;4.028;2023-05-02T11:41:41;15.30;99.90
21244;DHT22;10780;50.942;4.028;2023-05-02T11:44:07;15.40;99.90
21244;DHT22;10780;50.942;4.028;2023-05-02T11:46:39;15.80;99.90
21244;DHT22;10780;50.942;4.028;2023-05-02T11:49:05;15.90;99.90
21244;DHT22;10780;50.942;4.028;2023-05-02T11:51:33;15.80;99.90
21244;DHT22;10780;50.942;4.028;2023-05-02T11:53:58;15.30;99.90
21244;DHT22;10780;50.942;4.028;2023-05-02T11:56:25;15.40;99.90
21244;DHT22;10780;50.942;4.028;2023-05-02T11:59:03;15.50;99.90
21244;DHT22;10780;50.942;4.028;2023-05-02T12:01:29;15.10;99.90
21244;DHT22;10780;50.942;4.028;2023-05-02T12:04:05;15.10;99.90
21244;DHT22;10780;50.942;4.028;2023-05-02T12:06:32;15.30;99.90
21244;DHT22;10780;50.942;4.028;2023-05-02T12:09:09;15.40;99.90
21244;DHT22;10780;50.942;4.028;2023-05-02T12:11:35;15.60;99.90
21244;DHT22;10780;50.942;4.028;2023-05-02T12:14:03;15.80;99.90
21244;DHT22;10780;50.942;4.028;2023-05-02T12:16:29;15.60;99.90
21244;DHT22;10780;50.942;4.028;2023-05-02T12:18:55;15.60;99.90
21244;DHT22;10780;50.942;4.028;2023-05-02T12:21:24;15.80;99.90
21244;DHT22;10780;50.942;4.028;2023-05-02T12:23:51;15.90;99.90
21244;DHT22;10780;50.942;4.028;2023-05-02T12:26:19;15.60;99.90
21244;DHT22;10780;50.942;4.028;2023-05-02T12:28:52;15.60;99.90
21244;DHT22;10780;50.942;4.028;2023-05-02T12:34:44;15.60;99.90
21244;DHT22;10780;50.942;4.028;2023-05-02T12:37:10;15.90;99.90
21244;DHT22;10780;50.942;4.028;2023-05-02T12:39:43;15.90;99.90
21244;DHT22;10780;50.942;4.028;2023-05-02T12:42:13;15.80;99.90
21244;DHT22;10780;50.942;4.028;2023-05-02T12:44:43;15.60;99.90
21244;DHT22;10780;50.942;4.028;2023-05-02T12:47:11;15.60;99.90
21244;DHT22;10780;50.942;4.028;2023-05-02T12:49:57;15.60;99.90
21244;DHT22;10780;50.942;4.028;2023-05-02T12:55:17;16.00;99.90
21244;DHT22;10780;50.942;4.028;2023-05-02T12:57:43;16.00;99.90
21244;DHT22;10780;50.942;4.028;2023-05-02T13:00:09;16.00;99.90
21244;DHT22;10780;50.942;4.028;2023-05-02T13:02:36;16.10;99.90
21244;DHT22;10780;50.942;4.028;2023-05-02T13:05:01;16.30;99.90
21244;DHT22;10780;50.942;4.028;2023-05-02T13:07:27;16.20;99.90
21244;DHT22;10780;50.942;4.028;2023-05-02T13:09:53;16.50;99.90
21244;DHT22;10780;50.942;4.028;2023-05-02T13:12:18;16.40;99.90
21244;DHT22;10780;50.942;4.028;2023-05-02T13:14:44;16.30;99.90
21244;DHT22;10780;50.942;4.028;2023-05-02T13:17:10;16.50;99.90
21244;DHT22;10780;50.942;4.028;2023-05-02T13:19:35;16.50;99.90
21244;DHT22;10780;50.942;4.028;2023-05-02T13:22:01;16.30;99.90
21244;DHT22;10780;50.942;4.028;2023-05-02T13:24:27;16.40;99.90
21244;DHT22;10780;50.942;4.028;2023-05-02T13:26:53;16.30;99.90
21244;DHT22;10780;50.942;4.028;2023-05-02T13:29:18;16.20;99.90
21244;DHT22;10780;50.942;4.028;2023-05-02T13:31:44;16.30;99.90
21244;DHT22;10780;50.942;4.028;2023-05-02T13:34:09;16.30;99.90
21244;DHT22;10780;50.942;4.028;2023-05-02T13:36:35;16.10;99.90
21244;DHT22;10780;50.942;4.028;2023-05-02T13:39:05;15.80;99.90
21244;DHT22;10780;50.942;4.028;2023-05-02T13:41:30;15.90;99.90
21244;DHT22;10780;50.942;4.028;2023-05-02T13:43:56;16.20;99.90
21244;DHT22;10780;50.942;4.028;2023-05-02T13:46:22;16.50;99.90
21244;DHT22;10780;50.942;4.028;2023-05-02T13:48:47;16.30;99.90
21244;DHT22;10780;50.942;4.028;2023-05-02T13:51:13;16.10;99.90
21244;DHT22;10780;50.942;4.028;2023-05-02T13:53:38;16.20;99.90
21244;DHT22;10780;50.942;4.028;2023-05-02T13:56:04;16.20;99.90
21244;DHT22;10780;50.942;4.028;2023-05-02T13:58:30;16.20;99.90
21244;DHT22;10780;50.942;4.028;2023-05-02T14:00:56;16.00;99.90
21244;DHT22;10780;50.942;4.028;2023-05-02T14:03:22;16.00;99.90
21244;DHT22;10780;50.942;4.028;2023-05-02T14:05:47;15.90;99.90
21244;DHT22;10780;50.942;4.028;2023-05-02T14:08:13;15.90;99.90
21244;DHT22;10780;50.942;4.028;2023-05-02T14:10:42;16.00;99.90
21244;DHT22;10780;50.942;4.028;2023-05-02T14:13:08;16.00;99.90
21244;DHT22;10780;50.942;4.028;2023-05-02T14:15:34;16.10;99.90
21244;DHT22;10780;50.942;4.028;2023-05-02T14:18:02;16.40;99.90
21244;DHT22;10780;50.942;4.028;2023-05-02T14:20:27;16.20;99.90
21244;DHT22;10780;50.942;4.028;2023-05-02T14:22:53;16.30;99.90
21244;DHT22;10780;50.942;4.028;2023-05-02T14:25:18;16.70;99.90
21244;DHT22;10780;50.942;4.028;2023-05-02T14:27:45;17.40;99.90
21244;DHT22;10780;50.942;4.028;2023-05-02T14:30:11;17.70;99.90
21244;DHT22;10780;50.942;4.028;2023-05-02T14:32:37;17.60;99.90
21244;DHT22;10780;50.942;4.028;2023-05-02T14:35:02;17.60;99.90
21244;DHT22;10780;50.942;4.028;2023-05-02T14:37:28;18.00;99.90
21244;DHT22;10780;50.942;4.028;2023-05-02T14:39:54;18.40;99.90
21244;DHT22;10780;50.942;4.028;2023-05-02T14:42:24;18.70;99.90
21244;DHT22;10780;50.942;4.028;2023-05-02T14:44:50;18.90;99.90
21244;DHT22;10780;50.942;4.028;2023-05-02T14:47:16;19.20;99.90
21244;DHT22;10780;50.942;4.028;2023-05-02T14:49:41;19.30;99.90
21244;DHT22;10780;50.942;4.028;2023-05-02T14:52:07;20.10;99.90
21244;DHT22;10780;50.942;4.028;2023-05-02T14:54:33;19.50;99.90
21244;DHT22;10780;50.942;4.028;2023-05-02T14:56:59;19.40;99.90
21244;DHT22;10780;50.942;4.028;2023-05-02T14:59:29;20.10;99.90
21244;DHT22;10780;50.942;4.028;2023-05-02T15:01:55;19.40;99.90
21244;DHT22;10780;50.942;4.028;2023-05-02T15:04:20;18.30;99.90
21244;DHT22;10780;50.942;4.028;2023-05-02T15:06:46;17.90;99.90
21244;DHT22;10780;50.942;4.028;2023-05-02T15:09:13;18.60;99.90
21244;DHT22;10780;50.942;4.028;2023-05-02T15:11:39;18.60;99.90
21244;DHT22;10780;50.942;4.028;2023-05-02T15:14:04;18.60;99.90
21244;DHT22;10780;50.942;4.028;2023-05-02T15:16:30;19.70;99.90
21244;DHT22;10780;50.942;4.028;2023-05-02T15:18:56;20.10;99.90
21244;DHT22;10780;50.942;4.028;2023-05-02T15:21:21;19.60;99.90
21244;DHT22;10780;50.942;4.028;2023-05-02T15:23:47;19.00;99.90
21244;DHT22;10780;50.942;4.028;2023-05-02T15:26:13;18.30;99.90
21244;DHT22;10780;50.942;4.028;2023-05-02T15:28:39;18.30;99.90
21244;DHT22;10780;50.942;4.028;2023-05-02T15:31:05;18.90;99.90
21244;DHT22;10780;50.942;4.028;2023-05-02T15:33:30;19.60;99.90
21244;DHT22;10780;50.942;4.028;2023-05-02T15:35:57;20.10;99.90
21244;DHT22;10780;50.942;4.028;2023-05-02T15:38:23;19.80;99.90
21244;DHT22;10780;50.942;4.028;2023-05-02T15:40:56;19.80;99.90
21244;DHT22;10780;50.942;4.028;2023-05-02T15:43:22;19.50;99.90
21244;DHT22;10780;50.942;4.028;2023-05-02T15:45:56;19.90;99.90
21244;DHT22;10780;50.942;4.028;2023-05-02T15:48:22;20.00;99.90
21244;DHT22;10780;50.942;4.028;2023-05-02T15:50:48;20.60;99.90
21244;DHT22;10780;50.942;4.028;2023-05-02T15:53:15;20.80;99.90
21244;DHT22;10780;50.942;4.028;2023-05-02T15:55:41;21.00;99.90
21244;DHT22;10780;50.942;4.028;2023-05-02T15:58:17;20.20;99.90
21244;DHT22;10780;50.942;4.028;2023-05-02T16:00:44;20.90;99.90
21244;DHT22;10780;50.942;4.028;2023-05-02T16:03:10;19.40;99.90
21244;DHT22;10780;50.942;4.028;2023-05-02T16:05:37;19.30;99.90
21244;DHT22;10780;50.942;4.028;2023-05-02T16:08:03;19.50;99.90
21244;DHT22;10780;50.942;4.028;2023-05-02T16:10:29;20.30;99.90
21244;DHT22;10780;50.942;4.028;2023-05-02T16:12:55;19.90;99.90
21244;DHT22;10780;50.942;4.028;2023-05-02T16:15:21;20.20;99.90
21244;DHT22;10780;50.942;4.028;2023-05-02T16:17:47;19.60;99.90
21244;DHT22;10780;50.942;4.028;2023-05-02T16:20:16;20.10;99.90
21244;DHT22;10780;50.942;4.028;2023-05-02T16:22:46;20.00;99.90
21244;DHT22;10780;50.942;4.028;2023-05-02T16:25:13;20.70;99.90
21244;DHT22;10780;50.942;4.028;2023-05-02T16:27:39;20.70;99.90
21244;DHT22;10780;50.942;4.028;2023-05-02T16:30:06;19.10;99.90